CheckWX is a tool to help pilots better visualize weather data.  It is not intended as a substitute for an official pre-flight weather briefing.

14:32:28 UTC

KMYR METAR
Myrtle Beach International Airport
Myrtle Beach, South Carolina, USA
Current

36 mins ago

KMYR 071356Z 36009KT 10SM CLR 11/07 A3026 RMK AO2 SLP247 T01110067
Observed
Dec-7 @ 13:56 UTC
Wind
  • 360° at 9 KTS
Visibility
10 SM
Flight Rules
VFR
Cloud Levels
  • Clear skies
Temperature
11°C / 52°F
Dewpoint
C / 45°F
Humidity
77%
Altimeter
30.26" Hg
Pressure
1024.72 hPa
Previous

2 hours ago

KMYR 071256Z 34005KT 10SM CLR 08/08 A3025 RMK AO2 SLP243 P0001 T00830078
Observed
Dec-7 @ 12:56 UTC
Wind
  • 340° at 5 KTS
Visibility
10 SM
Flight Rules
VFR
Cloud Levels
  • Clear skies
Temperature
C / 46°F
Dewpoint
C / 46°F
Humidity
100%
Altimeter
30.25" Hg
Pressure
1024.42 hPa
Current Rain
0.01"
Previous

3 hours ago

KMYR 071156Z 33006KT 7SM SCT060 08/08 A3024 RMK AO2 SLP239 70006 T00780078 10111 20078 53020
Observed
Dec-7 @ 11:56 UTC
Wind
  • 330° at 6 KTS
Visibility
7 SM
Flight Rules
VFR
Cloud Levels
  • Scattered at 6,000' AGL
Temperature
C / 46°F
Dewpoint
C / 46°F
Humidity
100%
Altimeter
30.24" Hg
Pressure
1024.02 hPa
24 Hour Rain
0.06"